sensor_id;sensor_type;location;lat;lon;timestamp;temperature;humidity
21592;DHT22;10958;50.892;3.992;2022-08-11T00:00:06;23.70;99.90
21592;DHT22;10958;50.892;3.992;2022-08-11T00:02:49;23.60;99.90
21592;DHT22;10958;50.892;3.992;2022-08-11T00:05:18;23.60;99.90
21592;DHT22;10958;50.892;3.992;2022-08-11T00:07:51;23.70;99.90
21592;DHT22;10958;50.892;3.992;2022-08-11T00:10:22;23.80;99.90
21592;DHT22;10958;50.892;3.992;2022-08-11T00:13:01;23.80;99.90
21592;DHT22;10958;50.892;3.992;2022-08-11T00:15:40;23.90;99.90
21592;DHT22;10958;50.892;3.992;2022-08-11T00:18:06;23.90;99.90
21592;DHT22;10958;50.892;3.992;2022-08-11T00:20:37;23.90;99.90
21592;DHT22;10958;50.892;3.992;2022-08-11T00:23:11;23.60;99.90
21592;DHT22;10958;50.892;3.992;2022-08-11T00:25:44;23.70;99.90
21592;DHT22;10958;50.892;3.992;2022-08-11T00:28:33;23.60;99.90
21592;DHT22;10958;50.892;3.992;2022-08-11T00:31:03;23.40;99.90
21592;DHT22;10958;50.892;3.992;2022-08-11T00:33:37;23.50;99.90
21592;DHT22;10958;50.892;3.992;2022-08-11T00:36:05;23.30;99.90
21592;DHT22;10958;50.892;3.992;2022-08-11T00:38:37;23.20;99.90
21592;DHT22;10958;50.892;3.992;2022-08-11T00:41:32;23.00;99.90
21592;DHT22;10958;50.892;3.992;2022-08-11T00:46:49;23.00;99.90
21592;DHT22;10958;50.892;3.992;2022-08-11T00:49:26;22.90;99.90
21592;DHT22;10958;50.892;3.992;2022-08-11T00:52:58;23.00;99.90
21592;DHT22;10958;50.892;3.992;2022-08-11T01:01:09;22.80;99.90
21592;DHT22;10958;50.892;3.992;2022-08-11T01:09:07;22.90;99.90
21592;DHT22;10958;50.892;3.992;2022-08-11T01:28:57;23.00;99.90
21592;DHT22;10958;50.892;3.992;2022-08-11T01:36:49;22.80;99.90
21592;DHT22;10958;50.892;3.992;2022-08-11T01:48:48;22.60;99.90
21592;DHT22;10958;50.892;3.992;2022-08-11T01:54:26;22.60;99.90
21592;DHT22;10958;50.892;3.992;2022-08-11T01:59:51;22.50;99.90
21592;DHT22;10958;50.892;3.992;2022-08-11T02:10:54;22.30;99.90
21592;DHT22;10958;50.892;3.992;2022-08-11T02:13:50;22.20;99.90
21592;DHT22;10958;50.892;3.992;2022-08-11T02:19:57;22.10;99.90
21592;DHT22;10958;50.892;3.992;2022-08-11T02:26:17;22.10;99.90
21592;DHT22;10958;50.892;3.992;2022-08-11T02:31:41;21.90;99.90
21592;DHT22;10958;50.892;3.992;2022-08-11T02:35:07;21.70;99.90
21592;DHT22;10958;50.892;3.992;2022-08-11T02:44:10;21.20;99.90
21592;DHT22;10958;50.892;3.992;2022-08-11T02:49:51;20.70;99.90
21592;DHT22;10958;50.892;3.992;2022-08-11T02:58:14;20.60;99.90
21592;DHT22;10958;50.892;3.992;2022-08-11T03:00:49;20.50;99.90
21592;DHT22;10958;50.892;3.992;2022-08-11T03:03:20;20.40;99.90
21592;DHT22;10958;50.892;3.992;2022-08-11T03:06:10;20.30;99.90
21592;DHT22;10958;50.892;3.992;2022-08-11T03:08:52;20.30;99.90
21592;DHT22;10958;50.892;3.992;2022-08-11T03:18:05;20.20;99.90
21592;DHT22;10958;50.892;3.992;2022-08-11T03:21:03;20.10;99.90
21592;DHT22;10958;50.892;3.992;2022-08-11T03:26:25;19.70;99.90
21592;DHT22;10958;50.892;3.992;2022-08-11T03:34:20;19.90;99.90
21592;DHT22;10958;50.892;3.992;2022-08-11T03:37:18;19.80;99.90
21592;DHT22;10958;50.892;3.992;2022-08-11T04:11:43;19.60;99.90
21592;DHT22;10958;50.892;3.992;2022-08-11T04:14:36;19.60;99.90
21592;DHT22;10958;50.892;3.992;2022-08-11T04:26:27;19.70;99.90
21592;DHT22;10958;50.892;3.992;2022-08-11T04:32:08;19.40;99.90
21592;DHT22;10958;50.892;3.992;2022-08-11T04:46:42;19.20;99.90
21592;DHT22;10958;50.892;3.992;2022-08-11T04:49:53;19.20;99.90
21592;DHT22;10958;50.892;3.992;2022-08-11T04:52:54;19.40;99.90
21592;DHT22;10958;50.892;3.992;2022-08-11T04:56:02;19.60;99.90
21592;DHT22;10958;50.892;3.992;2022-08-11T05:11:23;19.80;99.90
21592;DHT22;10958;50.892;3.992;2022-08-11T05:16:57;19.80;99.90
21592;DHT22;10958;50.892;3.992;2022-08-11T05:22:13;19.90;99.90
21592;DHT22;10958;50.892;3.992;2022-08-11T05:25:10;20.00;99.90
21592;DHT22;10958;50.892;3.992;2022-08-11T05:31:25;20.00;99.90
21592;DHT22;10958;50.892;3.992;2022-08-11T05:34:35;20.00;99.90
21592;DHT22;10958;50.892;3.992;2022-08-11T05:37:33;20.10;99.90
21592;DHT22;10958;50.892;3.992;2022-08-11T05:40:10;20.10;99.90
21592;DHT22;10958;50.892;3.992;2022-08-11T05:43:01;20.00;99.90
21592;DHT22;10958;50.892;3.992;2022-08-11T05:46:01;20.00;99.90
21592;DHT22;10958;50.892;3.992;2022-08-11T05:48:45;20.10;99.90
21592;DHT22;10958;50.892;3.992;2022-08-11T05:51:35;20.10;99.90
21592;DHT22;10958;50.892;3.992;2022-08-11T05:54:20;20.20;99.90
21592;DHT22;10958;50.892;3.992;2022-08-11T05:57:06;20.10;99.90
21592;DHT22;10958;50.892;3.992;2022-08-11T05:59:32;20.20;99.90
21592;DHT22;10958;50.892;3.992;2022-08-11T06:04:34;20.30;99.90
21592;DHT22;10958;50.892;3.992;2022-08-11T06:09:54;20.50;99.90
21592;DHT22;10958;50.892;3.992;2022-08-11T06:12:21;20.70;99.90
21592;DHT22;10958;50.892;3.992;2022-08-11T06:14:51;20.80;99.90
21592;DHT22;10958;50.892;3.992;2022-08-11T06:17:26;21.20;99.90
21592;DHT22;10958;50.892;3.992;2022-08-11T06:20:07;22.40;99.90
21592;DHT22;10958;50.892;3.992;2022-08-11T06:22:36;23.70;99.90
21592;DHT22;10958;50.892;3.992;2022-08-11T06:25:03;24.80;99.90
21592;DHT22;10958;50.892;3.992;2022-08-11T06:27:32;26.10;99.90
21592;DHT22;10958;50.892;3.992;2022-08-11T06:30:00;26.30;99.90
21592;DHT22;10958;50.892;3.992;2022-08-11T06:32:42;26.50;99.90
21592;DHT22;10958;50.892;3.992;2022-08-11T06:35:21;26.80;99.90
21592;DHT22;10958;50.892;3.992;2022-08-11T06:43:52;27.80;99.90
21592;DHT22;10958;50.892;3.992;2022-08-11T06:46:31;28.30;99.90
21592;DHT22;10958;50.892;3.992;2022-08-11T06:49:00;28.50;99.90
21592;DHT22;10958;50.892;3.992;2022-08-11T06:51:27;29.30;99.90
21592;DHT22;10958;50.892;3.992;2022-08-11T06:53:56;29.30;99.90
21592;DHT22;10958;50.892;3.992;2022-08-11T06:56:26;29.50;99.90
21592;DHT22;10958;50.892;3.992;2022-08-11T06:59:12;30.10;99.90
21592;DHT22;10958;50.892;3.992;2022-08-11T07:13:26;32.30;99.90
21592;DHT22;10958;50.892;3.992;2022-08-11T07:16:15;31.60;99.90
21592;DHT22;10958;50.892;3.992;2022-08-11T07:18:45;31.40;99.90
21592;DHT22;10958;50.892;3.992;2022-08-11T07:21:33;31.60;99.90
21592;DHT22;10958;50.892;3.992;2022-08-11T07:24:26;32.70;99.90
21592;DHT22;10958;50.892;3.992;2022-08-11T07:27:16;33.00;99.90
21592;DHT22;10958;50.892;3.992;2022-08-11T07:30:07;33.20;99.90
21592;DHT22;10958;50.892;3.992;2022-08-11T07:32:38;33.40;99.90
21592;DHT22;10958;50.892;3.992;2022-08-11T07:40:28;33.90;99.90
21592;DHT22;10958;50.892;3.992;2022-08-11T07:42:55;34.40;99.90
21592;DHT22;10958;50.892;3.992;2022-08-11T07:45:23;33.90;99.90
21592;DHT22;10958;50.892;3.992;2022-08-11T07:48:08;33.70;99.90
21592;DHT22;10958;50.892;3.992;2022-08-11T07:50:54;33.60;99.90
21592;DHT22;10958;50.892;3.992;2022-08-11T07:53:38;33.30;99.90
21592;DHT22;10958;50.892;3.992;2022-08-11T07:56:05;33.60;99.90
21592;DHT22;10958;50.892;3.992;2022-08-11T07:58:34;33.40;99.90
21592;DHT22;10958;50.892;3.992;2022-08-11T08:01:24;33.70;99.90
21592;DHT22;10958;50.892;3.992;2022-08-11T08:04:11;33.70;99.90
21592;DHT22;10958;50.892;3.992;2022-08-11T08:06:57;34.10;99.90
21592;DHT22;10958;50.892;3.992;2022-08-11T08:09:57;33.30;99.90
21592;DHT22;10958;50.892;3.992;2022-08-11T08:12:41;33.60;99.90
21592;DHT22;10958;50.892;3.992;2022-08-11T08:16:02;34.30;99.90
21592;DHT22;10958;50.892;3.992;2022-08-11T08:18:47;35.20;99.90
21592;DHT22;10958;50.892;3.992;2022-08-11T08:21:13;35.60;99.90
21592;DHT22;10958;50.892;3.992;2022-08-11T08:23:41;35.50;99.90
21592;DHT22;10958;50.892;3.992;2022-08-11T08:26:10;36.20;99.90
21592;DHT22;10958;50.892;3.992;2022-08-11T08:29:00;36.30;99.90
21592;DHT22;10958;50.892;3.992;2022-08-11T08:31:45;36.20;99.90
21592;DHT22;10958;50.892;3.992;2022-08-11T08:34:13;36.50;99.90
21592;DHT22;10958;50.892;3.992;2022-08-11T08:36:42;36.60;99.90
21592;DHT22;10958;50.892;3.992;2022-08-11T08:39:08;36.00;99.90
21592;DHT22;10958;50.892;3.992;2022-08-11T08:41:35;36.30;99.90
21592;DHT22;10958;50.892;3.992;2022-08-11T08:44:06;35.50;99.90
21592;DHT22;10958;50.892;3.992;2022-08-11T08:54:38;34.90;99.90
21592;DHT22;10958;50.892;3.992;2022-08-11T08:57:07;35.20;99.90
21592;DHT22;10958;50.892;3.992;2022-08-11T08:59:40;35.70;99.90
21592;DHT22;10958;50.892;3.992;2022-08-11T09:02:08;35.80;99.90
21592;DHT22;10958;50.892;3.992;2022-08-11T09:04:44;35.50;99.90
21592;DHT22;10958;50.892;3.992;2022-08-11T09:07:14;35.10;99.90
21592;DHT22;10958;50.892;3.992;2022-08-11T09:12:26;34.40;99.90
21592;DHT22;10958;50.892;3.992;2022-08-11T09:15:06;34.80;99.90
21592;DHT22;10958;50.892;3.992;2022-08-11T09:17:46;35.00;99.90
21592;DHT22;10958;50.892;3.992;2022-08-11T09:20:20;34.30;99.70
21592;DHT22;10958;50.892;3.992;2022-08-11T09:22:47;34.60;99.20
21592;DHT22;10958;50.892;3.992;2022-08-11T09:25:32;34.60;98.90
21592;DHT22;10958;50.892;3.992;2022-08-11T09:28:19;34.30;98.80
21592;DHT22;10958;50.892;3.992;2022-08-11T09:30:49;34.00;99.40
21592;DHT22;10958;50.892;3.992;2022-08-11T09:33:18;34.60;99.00
21592;DHT22;10958;50.892;3.992;2022-08-11T09:35:46;33.80;98.70
21592;DHT22;10958;50.892;3.992;2022-08-11T09:38:15;34.30;99.00
21592;DHT22;10958;50.892;3.992;2022-08-11T09:41:03;35.10;98.40
21592;DHT22;10958;50.892;3.992;2022-08-11T09:43:34;35.60;97.90
21592;DHT22;10958;50.892;3.992;2022-08-11T09:46:23;35.20;96.70
21592;DHT22;10958;50.892;3.992;2022-08-11T09:48:51;35.00;96.40
21592;DHT22;10958;50.892;3.992;2022-08-11T09:51:20;34.80;96.90
21592;DHT22;10958;50.892;3.992;2022-08-11T09:53:48;34.30;97.10
21592;DHT22;10958;50.892;3.992;2022-08-11T09:56:16;34.40;97.30
21592;DHT22;10958;50.892;3.992;2022-08-11T09:59:03;34.10;97.50
21592;DHT22;10958;50.892;3.992;2022-08-11T10:03:36;33.40;97.40
21592;DHT22;10958;50.892;3.992;2022-08-11T10:06:04;34.00;96.80
21592;DHT22;10958;50.892;3.992;2022-08-11T10:08:51;34.20;96.80
21592;DHT22;10958;50.892;3.992;2022-08-11T10:11:18;34.10;96.80
21592;DHT22;10958;50.892;3.992;2022-08-11T10:13:47;33.80;96.90
21592;DHT22;10958;50.892;3.992;2022-08-11T10:16:36;34.00;97.10
21592;DHT22;10958;50.892;3.992;2022-08-11T10:19:05;34.60;97.20
21592;DHT22;10958;50.892;3.992;2022-08-11T10:21:47;34.90;95.80
21592;DHT22;10958;50.892;3.992;2022-08-11T10:24:34;34.90;96.70
21592;DHT22;10958;50.892;3.992;2022-08-11T10:27:18;34.90;95.30
21592;DHT22;10958;50.892;3.992;2022-08-11T10:29:45;34.20;94.80
21592;DHT22;10958;50.892;3.992;2022-08-11T10:32:30;32.70;95.80
21592;DHT22;10958;50.892;3.992;2022-08-11T10:35:16;32.70;96.30
21592;DHT22;10958;50.892;3.992;2022-08-11T10:37:44;32.60;96.50
21592;DHT22;10958;50.892;3.992;2022-08-11T10:40:14;32.30;97.20
21592;DHT22;10958;50.892;3.992;2022-08-11T10:42:42;32.30;97.00
21592;DHT22;10958;50.892;3.992;2022-08-11T10:45:34;32.30;96.50
21592;DHT22;10958;50.892;3.992;2022-08-11T10:48:34;32.00;97.00
21592;DHT22;10958;50.892;3.992;2022-08-11T10:51:01;31.60;97.50
21592;DHT22;10958;50.892;3.992;2022-08-11T10:53:45;31.90;97.30
21592;DHT22;10958;50.892;3.992;2022-08-11T10:56:35;31.70;97.80
21592;DHT22;10958;50.892;3.992;2022-08-11T10:59:21;31.60;97.00
21592;DHT22;10958;50.892;3.992;2022-08-11T11:01:49;31.50;97.70
21592;DHT22;10958;50.892;3.992;2022-08-11T11:04:20;31.80;97.80
21592;DHT22;10958;50.892;3.992;2022-08-11T11:09:33;32.10;96.40
21592;DHT22;10958;50.892;3.992;2022-08-11T11:12:09;32.00;96.80
21592;DHT22;10958;50.892;3.992;2022-08-11T11:14:55;32.00;97.20
21592;DHT22;10958;50.892;3.992;2022-08-11T11:17:45;31.80;97.10
21592;DHT22;10958;50.892;3.992;2022-08-11T11:23:27;31.70;96.70
21592;DHT22;10958;50.892;3.992;2022-08-11T11:26:22;31.70;97.50
21592;DHT22;10958;50.892;3.992;2022-08-11T11:37:24;31.50;96.80
21592;DHT22;10958;50.892;3.992;2022-08-11T11:39:53;31.60;97.70
21592;DHT22;10958;50.892;3.992;2022-08-11T11:42:19;31.60;97.30
21592;DHT22;10958;50.892;3.992;2022-08-11T11:44:47;31.70;97.20
21592;DHT22;10958;50.892;3.992;2022-08-11T11:47:13;31.70;97.30
21592;DHT22;10958;50.892;3.992;2022-08-11T11:49:41;31.60;97.20
21592;DHT22;10958;50.892;3.992;2022-08-11T11:52:17;31.50;97.10
21592;DHT22;10958;50.892;3.992;2022-08-11T11:54:45;31.70;96.90
21592;DHT22;10958;50.892;3.992;2022-08-11T11:57:16;31.80;96.50
21592;DHT22;10958;50.892;3.992;2022-08-11T12:00:03;31.90;96.30
21592;DHT22;10958;50.892;3.992;2022-08-11T12:02:49;31.80;96.70
21592;DHT22;10958;50.892;3.992;2022-08-11T12:05:16;31.80;95.90
21592;DHT22;10958;50.892;3.992;2022-08-11T12:07:42;31.80;96.50
21592;DHT22;10958;50.892;3.992;2022-08-11T12:10:27;31.80;96.30
21592;DHT22;10958;50.892;3.992;2022-08-11T12:12:54;32.00;96.00
21592;DHT22;10958;50.892;3.992;2022-08-11T12:15:39;32.10;96.00
21592;DHT22;10958;50.892;3.992;2022-08-11T12:18:05;32.10;96.00
21592;DHT22;10958;50.892;3.992;2022-08-11T12:20:31;32.20;96.00
21592;DHT22;10958;50.892;3.992;2022-08-11T12:22:57;32.20;95.70
21592;DHT22;10958;50.892;3.992;2022-08-11T12:25:42;32.10;96.20
21592;DHT22;10958;50.892;3.992;2022-08-11T12:39:22;32.50;95.50
21592;DHT22;10958;50.892;3.992;2022-08-11T12:42:13;32.70;95.30
21592;DHT22;10958;50.892;3.992;2022-08-11T12:44:59;32.50;95.60
21592;DHT22;10958;50.892;3.992;2022-08-11T12:47:48;32.40;95.20
21592;DHT22;10958;50.892;3.992;2022-08-11T12:50:34;32.40;95.50
21592;DHT22;10958;50.892;3.992;2022-08-11T12:53:26;32.40;95.70
21592;DHT22;10958;50.892;3.992;2022-08-11T12:55:55;32.40;95.80
21592;DHT22;10958;50.892;3.992;2022-08-11T12:58:41;32.40;95.60
21592;DHT22;10958;50.892;3.992;2022-08-11T13:01:07;32.40;95.70
21592;DHT22;10958;50.892;3.992;2022-08-11T13:03:53;32.50;95.70
21592;DHT22;10958;50.892;3.992;2022-08-11T13:06:38;32.70;95.80
21592;DHT22;10958;50.892;3.992;2022-08-11T13:09:06;32.70;96.20
21592;DHT22;10958;50.892;3.992;2022-08-11T13:11:35;32.70;94.80
21592;DHT22;10958;50.892;3.992;2022-08-11T13:14:21;32.40;95.30
21592;DHT22;10958;50.892;3.992;2022-08-11T13:16:47;32.40;95.90
21592;DHT22;10958;50.892;3.992;2022-08-11T13:19:32;32.50;95.40
21592;DHT22;10958;50.892;3.992;2022-08-11T13:21:59;32.50;95.10
21592;DHT22;10958;50.892;3.992;2022-08-11T13:24:27;32.50;95.20
21592;DHT22;10958;50.892;3.992;2022-08-11T13:26:53;32.80;95.30
21592;DHT22;10958;50.892;3.992;2022-08-11T13:29:24;32.70;94.70
21592;DHT22;10958;50.892;3.992;2022-08-11T13:31:52;32.70;94.80
21592;DHT22;10958;50.892;3.992;2022-08-11T13:34:19;32.60;94.70
21592;DHT22;10958;50.892;3.992;2022-08-11T13:36:50;32.50;94.60
21592;DHT22;10958;50.892;3.992;2022-08-11T13:39:23;32.70;95.00
21592;DHT22;10958;50.892;3.992;2022-08-11T13:41:52;32.70;94.90
21592;DHT22;10958;50.892;3.992;2022-08-11T13:44:19;32.60;94.60
21592;DHT22;10958;50.892;3.992;2022-08-11T13:46:45;32.60;94.60
21592;DHT22;10958;50.892;3.992;2022-08-11T13:49:15;32.60;95.10
21592;DHT22;10958;50.892;3.992;2022-08-11T13:51:41;32.80;94.50
21592;DHT22;10958;50.892;3.992;2022-08-11T13:54:10;32.80;94.10
21592;DHT22;10958;50.892;3.992;2022-08-11T13:56:44;33.00;94.40
21592;DHT22;10958;50.892;3.992;2022-08-11T13:59:12;33.00;94.50
21592;DHT22;10958;50.892;3.992;2022-08-11T14:01:42;33.00;93.40
21592;DHT22;10958;50.892;3.992;2022-08-11T14:04:11;33.10;93.30
21592;DHT22;10958;50.892;3.992;2022-08-11T14:06:47;33.00;94.00
21592;DHT22;10958;50.892;3.992;2022-08-11T14:09:19;33.20;94.60
21592;DHT22;10958;50.892;3.992;2022-08-11T14:11:47;33.10;93.20
21592;DHT22;10958;50.892;3.992;2022-08-11T14:14:33;33.10;92.80
21592;DHT22;10958;50.892;3.992;2022-08-11T14:17:04;32.90;92.80
21592;DHT22;10958;50.892;3.992;2022-08-11T14:19:32;32.90;92.80
21592;DHT22;10958;50.892;3.992;2022-08-11T14:22:00;32.90;92.80
21592;DHT22;10958;50.892;3.992;2022-08-11T14:24:38;32.90;92.50
21592;DHT22;10958;50.892;3.992;2022-08-11T14:27:09;33.00;93.40
21592;DHT22;10958;50.892;3.992;2022-08-11T14:29:38;32.90;92.50
21592;DHT22;10958;50.892;3.992;2022-08-11T14:32:07;32.80;92.90
21592;DHT22;10958;50.892;3.992;2022-08-11T14:34:37;32.80;92.60
21592;DHT22;10958;50.892;3.992;2022-08-11T14:37:06;32.70;92.80
21592;DHT22;10958;50.892;3.992;2022-08-11T14:39:47;32.70;92.10
21592;DHT22;10958;50.892;3.992;2022-08-11T14:42:16;32.50;92.40
21592;DHT22;10958;50.892;3.992;2022-08-11T14:45:16;32.40;92.40
21592;DHT22;10958;50.892;3.992;2022-08-11T14:48:03;32.30;92.00
21592;DHT22;10958;50.892;3.992;2022-08-11T14:50:31;32.60;92.80
21592;DHT22;10958;50.892;3.992;2022-08-11T14:53:06;32.70;92.20
21592;DHT22;10958;50.892;3.992;2022-08-11T14:55:39;32.70;92.20
21592;DHT22;10958;50.892;3.992;2022-08-11T14:58:27;32.80;92.60
21592;DHT22;10958;50.892;3.992;2022-08-11T15:00:56;32.80;92.10
21592;DHT22;10958;50.892;3.992;2022-08-11T15:03:24;32.70;92.00
21592;DHT22;10958;50.892;3.992;2022-08-11T15:05:51;32.70;92.10
21592;DHT22;10958;50.892;3.992;2022-08-11T15:08:18;32.70;92.00
21592;DHT22;10958;50.892;3.992;2022-08-11T15:10:45;32.50;91.70
21592;DHT22;10958;50.892;3.992;2022-08-11T15:13:16;32.40;91.60
21592;DHT22;10958;50.892;3.992;2022-08-11T15:15:45;32.40;92.00
21592;DHT22;10958;50.892;3.992;2022-08-11T15:18:30;32.30;92.00
21592;DHT22;10958;50.892;3.992;2022-08-11T15:20:56;32.50;91.80
21592;DHT22;10958;50.892;3.992;2022-08-11T15:23:40;32.50;91.40
21592;DHT22;10958;50.892;3.992;2022-08-11T15:26:32;32.50;91.60
21592;DHT22;10958;50.892;3.992;2022-08-11T15:29:21;32.50;91.40
21592;DHT22;10958;50.892;3.992;2022-08-11T15:32:09;32.50;91.50
21592;DHT22;10958;50.892;3.992;2022-08-11T15:34:58;32.50;92.00
21592;DHT22;10958;50.892;3.992;2022-08-11T15:37:44;32.60;91.80
21592;DHT22;10958;50.892;3.992;2022-08-11T15:40:39;32.30;91.70
21592;DHT22;10958;50.892;3.992;2022-08-11T15:43:28;32.40;91.80
21592;DHT22;10958;50.892;3.992;2022-08-11T15:46:22;32.40;91.60
21592;DHT22;10958;50.892;3.992;2022-08-11T15:49:14;32.40;91.70
21592;DHT22;10958;50.892;3.992;2022-08-11T15:51:48;32.50;91.70
21592;DHT22;10958;50.892;3.992;2022-08-11T15:54:18;32.50;91.60
21592;DHT22;10958;50.892;3.992;2022-08-11T15:56:48;32.50;91.00
21592;DHT22;10958;50.892;3.992;2022-08-11T15:59:17;32.30;91.60
21592;DHT22;10958;50.892;3.992;2022-08-11T16:02:03;32.30;91.30
21592;DHT22;10958;50.892;3.992;2022-08-11T16:04:48;32.20;91.60
21592;DHT22;10958;50.892;3.992;2022-08-11T16:07:17;32.20;91.70
21592;DHT22;10958;50.892;3.992;2022-08-11T16:09:47;32.20;91.80
21592;DHT22;10958;50.892;3.992;2022-08-11T16:12:24;32.30;91.50
21592;DHT22;10958;50.892;3.992;2022-08-11T16:14:58;32.20;91.80
21592;DHT22;10958;50.892;3.992;2022-08-11T16:17:45;32.30;92.30
21592;DHT22;10958;50.892;3.992;2022-08-11T16:20:16;32.20;92.40
21592;DHT22;10958;50.892;3.992;2022-08-11T16:22:45;32.30;91.80
21592;DHT22;10958;50.892;3.992;2022-08-11T16:25:21;32.30;91.90
21592;DHT22;10958;50.892;3.992;2022-08-11T16:27:58;32.20;92.00
21592;DHT22;10958;50.892;3.992;2022-08-11T16:30:34;32.20;92.40
21592;DHT22;10958;50.892;3.992;2022-08-11T16:33:01;32.00;92.30
21592;DHT22;10958;50.892;3.992;2022-08-11T16:35:36;32.00;92.80
21592;DHT22;10958;50.892;3.992;2022-08-11T16:38:24;32.00;92.30
21592;DHT22;10958;50.892;3.992;2022-08-11T16:41:03;31.90;92.50
21592;DHT22;10958;50.892;3.992;2022-08-11T16:43:45;32.00;92.90
21592;DHT22;10958;50.892;3.992;2022-08-11T16:46:34;32.10;93.00
21592;DHT22;10958;50.892;3.992;2022-08-11T16:49:20;32.10;93.00
21592;DHT22;10958;50.892;3.992;2022-08-11T16:51:46;31.90;93.30
21592;DHT22;10958;50.892;3.992;2022-08-11T16:54:12;31.90;93.20
21592;DHT22;10958;50.892;3.992;2022-08-11T16:56:51;32.10;92.90
21592;DHT22;10958;50.892;3.992;2022-08-11T16:59:26;32.00;93.10
21592;DHT22;10958;50.892;3.992;2022-08-11T17:02:01;32.00;93.30
21592;DHT22;10958;50.892;3.992;2022-08-11T17:04:49;32.00;93.60
21592;DHT22;10958;50.892;3.992;2022-08-11T17:07:37;31.80;93.30
21592;DHT22;10958;50.892;3.992;2022-08-11T17:10:37;31.70;93.60
21592;DHT22;10958;50.892;3.992;2022-08-11T17:13:39;31.80;93.30
21592;DHT22;10958;50.892;3.992;2022-08-11T17:16:10;31.60;93.40
21592;DHT22;10958;50.892;3.992;2022-08-11T17:18:41;31.80;93.60
21592;DHT22;10958;50.892;3.992;2022-08-11T17:21:21;31.70;93.80
21592;DHT22;10958;50.892;3.992;2022-08-11T17:23:52;31.50;93.50
21592;DHT22;10958;50.892;3.992;2022-08-11T17:26:24;31.50;93.20
21592;DHT22;10958;50.892;3.992;2022-08-11T17:28:55;31.50;93.20
21592;DHT22;10958;50.892;3.992;2022-08-11T17:31:22;31.60;93.10
21592;DHT22;10958;50.892;3.992;2022-08-11T17:34:08;31.60;92.90
21592;DHT22;10958;50.892;3.992;2022-08-11T17:36:54;31.50;93.20
21592;DHT22;10958;50.892;3.992;2022-08-11T17:39:23;31.50;93.50
21592;DHT22;10958;50.892;3.992;2022-08-11T17:41:52;31.50;92.90
21592;DHT22;10958;50.892;3.992;2022-08-11T17:44:38;31.40;92.90
21592;DHT22;10958;50.892;3.992;2022-08-11T17:47:23;31.30;92.90
21592;DHT22;10958;50.892;3.992;2022-08-11T17:50:10;31.10;93.00
21592;DHT22;10958;50.892;3.992;2022-08-11T17:52:37;31.10;93.30
21592;DHT22;10958;50.892;3.992;2022-08-11T17:55:23;30.90;92.80
21592;DHT22;10958;50.892;3.992;2022-08-11T17:58:08;31.00;92.60
21592;DHT22;10958;50.892;3.992;2022-08-11T18:00:53;31.00;92.40
21592;DHT22;10958;50.892;3.992;2022-08-11T18:03:21;30.90;92.70
21592;DHT22;10958;50.892;3.992;2022-08-11T18:06:03;30.90;92.50
21592;DHT22;10958;50.892;3.992;2022-08-11T18:08:30;30.70;92.90
21592;DHT22;10958;50.892;3.992;2022-08-11T18:11:16;30.70;92.80
21592;DHT22;10958;50.892;3.992;2022-08-11T18:14:04;30.80;92.80
21592;DHT22;10958;50.892;3.992;2022-08-11T18:16:49;30.60;92.60
21592;DHT22;10958;50.892;3.992;2022-08-11T18:19:34;30.60;92.70
21592;DHT22;10958;50.892;3.992;2022-08-11T18:22:32;30.60;92.70
21592;DHT22;10958;50.892;3.992;2022-08-11T18:25:25;30.50;92.60
21592;DHT22;10958;50.892;3.992;2022-08-11T18:28:12;30.40;92.80
21592;DHT22;10958;50.892;3.992;2022-08-11T18:30:59;30.40;92.90
21592;DHT22;10958;50.892;3.992;2022-08-11T18:33:49;30.30;93.10
21592;DHT22;10958;50.892;3.992;2022-08-11T18:36:40;30.20;93.10
21592;DHT22;10958;50.892;3.992;2022-08-11T18:39:29;30.20;93.20
21592;DHT22;10958;50.892;3.992;2022-08-11T18:42:16;30.10;93.60
21592;DHT22;10958;50.892;3.992;2022-08-11T18:45:08;30.00;93.80
21592;DHT22;10958;50.892;3.992;2022-08-11T18:47:59;30.00;94.00
21592;DHT22;10958;50.892;3.992;2022-08-11T18:50:45;30.10;94.00
21592;DHT22;10958;50.892;3.992;2022-08-11T18:53:34;30.10;94.10
21592;DHT22;10958;50.892;3.992;2022-08-11T18:56:20;30.10;94.50
21592;DHT22;10958;50.892;3.992;2022-08-11T18:59:07;30.00;94.70
21592;DHT22;10958;50.892;3.992;2022-08-11T19:01:53;29.80;95.10
21592;DHT22;10958;50.892;3.992;2022-08-11T19:04:39;29.70;95.30
21592;DHT22;10958;50.892;3.992;2022-08-11T19:07:24;29.70;95.60
21592;DHT22;10958;50.892;3.992;2022-08-11T19:10:09;29.70;95.70
21592;DHT22;10958;50.892;3.992;2022-08-11T19:12:55;29.60;95.90
21592;DHT22;10958;50.892;3.992;2022-08-11T19:15:41;29.60;96.20
21592;DHT22;10958;50.892;3.992;2022-08-11T19:18:27;29.50;96.40
21592;DHT22;10958;50.892;3.992;2022-08-11T19:21:14;29.50;96.40
21592;DHT22;10958;50.892;3.992;2022-08-11T19:24:02;29.40;96.80
21592;DHT22;10958;50.892;3.992;2022-08-11T19:26:47;29.20;96.80
21592;DHT22;10958;50.892;3.992;2022-08-11T19:29:34;29.20;97.10
21592;DHT22;10958;50.892;3.992;2022-08-11T19:32:19;29.10;97.20
21592;DHT22;10958;50.892;3.992;2022-08-11T19:35:04;29.20;97.30
21592;DHT22;10958;50.892;3.992;2022-08-11T19:37:50;29.10;97.50
21592;DHT22;10958;50.892;3.992;2022-08-11T19:40:38;29.10;97.60
21592;DHT22;10958;50.892;3.992;2022-08-11T19:43:24;29.00;97.80
21592;DHT22;10958;50.892;3.992;2022-08-11T19:46:10;28.90;97.90
21592;DHT22;10958;50.892;3.992;2022-08-11T19:48:55;28.70;98.10
21592;DHT22;10958;50.892;3.992;2022-08-11T19:51:42;28.50;98.40
21592;DHT22;10958;50.892;3.992;2022-08-11T19:54:30;28.50;98.50
21592;DHT22;10958;50.892;3.992;2022-08-11T19:57:16;28.50;98.50
21592;DHT22;10958;50.892;3.992;2022-08-11T20:00:03;28.40;98.60
21592;DHT22;10958;50.892;3.992;2022-08-11T20:02:48;28.30;98.90
21592;DHT22;10958;50.892;3.992;2022-08-11T20:05:32;28.40;98.90
21592;DHT22;10958;50.892;3.992;2022-08-11T20:08:19;28.30;98.80
21592;DHT22;10958;50.892;3.992;2022-08-11T20:11:04;28.20;99.40
21592;DHT22;10958;50.892;3.992;2022-08-11T20:13:50;28.20;99.10
21592;DHT22;10958;50.892;3.992;2022-08-11T20:16:35;28.10;99.40
21592;DHT22;10958;50.892;3.992;2022-08-11T20:19:22;28.10;99.30
21592;DHT22;10958;50.892;3.992;2022-08-11T20:22:08;28.10;99.30
21592;DHT22;10958;50.892;3.992;2022-08-11T20:24:54;28.10;99.30
21592;DHT22;10958;50.892;3.992;2022-08-11T20:27:41;28.10;99.40
21592;DHT22;10958;50.892;3.992;2022-08-11T20:30:28;27.90;99.60
21592;DHT22;10958;50.892;3.992;2022-08-11T20:33:14;27.90;99.60
21592;DHT22;10958;50.892;3.992;2022-08-11T20:36:00;27.80;99.80
21592;DHT22;10958;50.892;3.992;2022-08-11T20:38:45;27.60;99.90
21592;DHT22;10958;50.892;3.992;2022-08-11T20:41:32;27.40;99.90
21592;DHT22;10958;50.892;3.992;2022-08-11T20:44:17;27.60;99.90
21592;DHT22;10958;50.892;3.992;2022-08-11T20:47:08;27.50;99.90